Terminal Aerodrome Forecast
Issued by NWS

Home | Current Version | Previous Version | Text Only | Print | Product List | Glossary On
Versions: 1 2 3 4 5 6 7 8 9 10 11 12 13
000
FTUS46 KOTX 211132
TAFPUW
TAF
KPUW 211132Z 2112/2212 10012KT P6SM SCT100 OVC150
     FM212100 06005KT P6SM BKN100 OVC150
     FM220800 10006KT P6SM BKN100 OVC150=

USA.gov is the U.S. government's official web portal to all federal, state and local government web resources and services.